sensor_id;sensor_type;location;lat;lon;timestamp;pressure;altitude;pressure_sealevel;temperature;humidity
27202;BME280;14717;46.924;15.474;2024-02-28T00:00:14;97724.34;;;8.63;100.00
27202;BME280;14717;46.924;15.474;2024-02-28T00:02:39;97714.16;;;8.63;100.00
27202;BME280;14717;46.924;15.474;2024-02-28T00:05:05;97707.34;;;8.51;100.00
27202;BME280;14717;46.924;15.474;2024-02-28T00:07:30;97714.81;;;8.46;100.00
27202;BME280;14717;46.924;15.474;2024-02-28T00:09:56;97720.00;;;8.52;100.00
27202;BME280;14717;46.924;15.474;2024-02-28T00:12:23;97718.91;;;8.53;100.00
27202;BME280;14717;46.924;15.474;2024-02-28T00:14:50;97713.44;;;8.48;100.00
27202;BME280;14717;46.924;15.474;2024-02-28T00:17:16;97715.06;;;8.49;100.00
27202;BME280;14717;46.924;15.474;2024-02-28T00:19:41;97721.69;;;8.48;100.00
27202;BME280;14717;46.924;15.474;2024-02-28T00:22:08;97719.47;;;8.50;100.00
27202;BME280;14717;46.924;15.474;2024-02-28T00:24:33;97717.88;;;8.34;100.00
27202;BME280;14717;46.924;15.474;2024-02-28T00:26:59;97713.28;;;8.25;100.00
27202;BME280;14717;46.924;15.474;2024-02-28T00:29:24;97709.97;;;8.18;100.00
27202;BME280;14717;46.924;15.474;2024-02-28T00:31:49;97708.88;;;8.19;100.00
27202;BME280;14717;46.924;15.474;2024-02-28T00:34:15;97715.44;;;8.23;100.00
27202;BME280;14717;46.924;15.474;2024-02-28T00:36:40;97710.84;;;8.13;100.00
27202;BME280;14717;46.924;15.474;2024-02-28T00:39:07;97716.91;;;8.10;100.00
27202;BME280;14717;46.924;15.474;2024-02-28T00:41:32;97732.00;;;8.08;100.00
27202;BME280;14717;46.924;15.474;2024-02-28T00:43:57;97730.66;;;8.01;100.00
27202;BME280;14717;46.924;15.474;2024-02-28T00:46:23;97729.50;;;8.06;100.00
27202;BME280;14717;46.924;15.474;2024-02-28T00:48:48;97730.66;;;8.01;100.00
27202;BME280;14717;46.924;15.474;2024-02-28T00:51:13;97726.25;;;8.00;100.00
27202;BME280;14717;46.924;15.474;2024-02-28T00:53:39;97728.19;;;7.94;100.00
27202;BME280;14717;46.924;15.474;2024-02-28T00:56:05;97728.47;;;7.88;100.00
27202;BME280;14717;46.924;15.474;2024-02-28T00:58:31;97735.69;;;7.74;100.00
27202;BME280;14717;46.924;15.474;2024-02-28T01:00:56;97733.19;;;7.77;100.00
27202;BME280;14717;46.924;15.474;2024-02-28T01:03:22;97736.75;;;7.78;100.00
27202;BME280;14717;46.924;15.474;2024-02-28T01:05:49;97741.72;;;7.81;100.00
27202;BME280;14717;46.924;15.474;2024-02-28T01:08:14;97729.59;;;7.82;100.00
27202;BME280;14717;46.924;15.474;2024-02-28T01:10:42;97740.03;;;7.85;100.00
27202;BME280;14717;46.924;15.474;2024-02-28T01:13:07;97735.66;;;7.84;100.00
27202;BME280;14717;46.924;15.474;2024-02-28T01:15:33;97740.56;;;7.87;100.00
27202;BME280;14717;46.924;15.474;2024-02-28T01:17:58;97746.06;;;7.87;100.00
27202;BME280;14717;46.924;15.474;2024-02-28T01:20:23;97745.00;;;7.83;100.00
27202;BME280;14717;46.924;15.474;2024-02-28T01:22:49;97751.06;;;7.65;100.00
27202;BME280;14717;46.924;15.474;2024-02-28T01:25:14;97744.50;;;7.51;100.00
27202;BME280;14717;46.924;15.474;2024-02-28T01:27:39;97742.56;;;7.47;100.00
27202;BME280;14717;46.924;15.474;2024-02-28T01:30:06;97743.13;;;7.24;100.00
27202;BME280;14717;46.924;15.474;2024-02-28T01:32:31;97747.25;;;7.21;100.00
27202;BME280;14717;46.924;15.474;2024-02-28T01:34:57;97752.19;;;7.34;100.00
27202;BME280;14717;46.924;15.474;2024-02-28T01:37:22;97754.13;;;7.39;100.00
27202;BME280;14717;46.924;15.474;2024-02-28T01:39:47;97750.56;;;7.38;100.00
27202;BME280;14717;46.924;15.474;2024-02-28T01:42:16;97753.56;;;7.47;100.00
27202;BME280;14717;46.924;15.474;2024-02-28T01:44:45;97749.75;;;7.43;100.00
27202;BME280;14717;46.924;15.474;2024-02-28T01:47:11;97745.06;;;7.38;100.00
27202;BME280;14717;46.924;15.474;2024-02-28T01:49:37;97750.56;;;7.28;100.00
27202;BME280;14717;46.924;15.474;2024-02-28T01:52:03;97750.56;;;7.23;100.00
27202;BME280;14717;46.924;15.474;2024-02-28T01:54:29;97744.53;;;7.21;100.00
27202;BME280;14717;46.924;15.474;2024-02-28T01:56:55;97746.69;;;7.19;100.00
27202;BME280;14717;46.924;15.474;2024-02-28T01:59:22;97751.09;;;7.11;100.00
27202;BME280;14717;46.924;15.474;2024-02-28T02:01:49;97754.91;;;7.05;100.00
27202;BME280;14717;46.924;15.474;2024-02-28T02:04:15;97755.50;;;7.12;100.00
27202;BME280;14717;46.924;15.474;2024-02-28T02:06:43;97753.84;;;7.16;100.00
27202;BME280;14717;46.924;15.474;2024-02-28T02:09:10;97757.13;;;7.13;100.00
27202;BME280;14717;46.924;15.474;2024-02-28T02:11:35;97754.38;;;7.03;100.00
27202;BME280;14717;46.924;15.474;2024-02-28T02:14:01;97753.81;;;6.91;100.00
27202;BME280;14717;46.924;15.474;2024-02-28T02:16:26;97759.84;;;6.88;100.00
27202;BME280;14717;46.924;15.474;2024-02-28T02:18:52;97751.63;;;6.93;100.00
27202;BME280;14717;46.924;15.474;2024-02-28T02:21:19;97755.47;;;6.87;100.00
27202;BME280;14717;46.924;15.474;2024-02-28T02:23:45;97752.16;;;6.90;100.00
27202;BME280;14717;46.924;15.474;2024-02-28T02:26:10;97742.84;;;6.91;100.00
27202;BME280;14717;46.924;15.474;2024-02-28T02:28:36;97754.63;;;6.91;100.00
27202;BME280;14717;46.924;15.474;2024-02-28T02:31:01;97750.53;;;6.94;100.00
27202;BME280;14717;46.924;15.474;2024-02-28T02:33:26;97745.59;;;6.96;100.00
27202;BME280;14717;46.924;15.474;2024-02-28T02:35:53;97753.00;;;6.95;100.00
27202;BME280;14717;46.924;15.474;2024-02-28T02:38:18;97758.78;;;6.94;100.00
27202;BME280;14717;46.924;15.474;2024-02-28T02:40:48;97752.16;;;6.95;100.00
27202;BME280;14717;46.924;15.474;2024-02-28T02:43:14;97755.47;;;6.92;100.00
27202;BME280;14717;46.924;15.474;2024-02-28T02:45:39;97761.47;;;6.69;100.00
27202;BME280;14717;46.924;15.474;2024-02-28T02:48:05;97764.16;;;6.54;100.00
27202;BME280;14717;46.924;15.474;2024-02-28T02:50:30;97759.97;;;6.37;100.00
27202;BME280;14717;46.924;15.474;2024-02-28T02:52:55;97754.19;;;6.29;100.00
27202;BME280;14717;46.924;15.474;2024-02-28T02:55:21;97751.19;;;6.30;100.00
27202;BME280;14717;46.924;15.474;2024-02-28T02:57:46;97747.38;;;6.31;100.00
27202;BME280;14717;46.924;15.474;2024-02-28T03:00:12;97745.69;;;6.30;100.00
27202;BME280;14717;46.924;15.474;2024-02-28T03:02:37;97749.19;;;6.16;100.00
27202;BME280;14717;46.924;15.474;2024-02-28T03:05:05;97757.19;;;6.22;100.00
27202;BME280;14717;46.924;15.474;2024-02-28T03:07:30;97763.56;;;6.37;100.00
27202;BME280;14717;46.924;15.474;2024-02-28T03:09:56;97766.03;;;6.39;100.00
27202;BME280;14717;46.924;15.474;2024-02-28T03:12:21;97762.47;;;6.43;100.00
27202;BME280;14717;46.924;15.474;2024-02-28T03:14:48;97758.13;;;6.47;100.00
27202;BME280;14717;46.924;15.474;2024-02-28T03:17:13;97753.72;;;6.51;100.00
27202;BME280;14717;46.924;15.474;2024-02-28T03:19:40;97762.50;;;6.53;100.00
27202;BME280;14717;46.924;15.474;2024-02-28T03:22:06;97772.09;;;6.46;100.00
27202;BME280;14717;46.924;15.474;2024-02-28T03:24:31;97771.81;;;6.42;100.00
27202;BME280;14717;46.924;15.474;2024-02-28T03:26:56;97765.50;;;6.47;100.00
27202;BME280;14717;46.924;15.474;2024-02-28T03:29:22;97770.09;;;6.27;100.00
27202;BME280;14717;46.924;15.474;2024-02-28T03:31:47;97768.91;;;6.13;100.00
27202;BME280;14717;46.924;15.474;2024-02-28T03:34:13;97763.97;;;6.05;100.00
27202;BME280;14717;46.924;15.474;2024-02-28T03:36:38;97762.59;;;6.07;100.00
27202;BME280;14717;46.924;15.474;2024-02-28T03:39:03;97773.31;;;6.14;100.00
27202;BME280;14717;46.924;15.474;2024-02-28T03:41:29;97762.34;;;6.14;100.00
27202;BME280;14717;46.924;15.474;2024-02-28T03:43:54;97756.81;;;6.04;100.00
27202;BME280;14717;46.924;15.474;2024-02-28T03:46:19;97754.34;;;6.02;100.00
27202;BME280;14717;46.924;15.474;2024-02-28T03:48:46;97756.75;;;5.89;100.00
27202;BME280;14717;46.924;15.474;2024-02-28T03:51:11;97759.47;;;5.84;100.00
27202;BME280;14717;46.924;15.474;2024-02-28T03:53:37;97754.50;;;5.81;100.00
27202;BME280;14717;46.924;15.474;2024-02-28T03:56:02;97760.91;;;5.92;100.00
27202;BME280;14717;46.924;15.474;2024-02-28T03:58:28;97765.56;;;6.01;100.00
27202;BME280;14717;46.924;15.474;2024-02-28T04:00:54;97754.09;;;6.04;100.00
27202;BME280;14717;46.924;15.474;2024-02-28T04:03:19;97762.84;;;6.01;100.00
27202;BME280;14717;46.924;15.474;2024-02-28T04:05:44;97773.31;;;6.09;100.00
27202;BME280;14717;46.924;15.474;2024-02-28T04:08:10;97761.44;;;5.93;100.00
27202;BME280;14717;46.924;15.474;2024-02-28T04:10:36;97760.50;;;5.78;100.00
27202;BME280;14717;46.924;15.474;2024-02-28T04:13:01;97766.00;;;5.78;100.00
27202;BME280;14717;46.924;15.474;2024-02-28T04:15:26;97764.41;;;5.82;100.00
27202;BME280;14717;46.924;15.474;2024-02-28T04:17:52;97764.41;;;5.82;100.00
27202;BME280;14717;46.924;15.474;2024-02-28T04:20:18;97764.69;;;5.86;100.00
27202;BME280;14717;46.924;15.474;2024-02-28T04:22:43;97762.78;;;5.91;100.00
27202;BME280;14717;46.924;15.474;2024-02-28T04:25:09;97763.88;;;5.85;100.00
27202;BME280;14717;46.924;15.474;2024-02-28T04:27:38;97764.69;;;5.86;100.00
27202;BME280;14717;46.924;15.474;2024-02-28T04:30:04;97769.88;;;5.82;100.00
27202;BME280;14717;46.924;15.474;2024-02-28T04:32:30;97765.53;;;5.91;100.00
27202;BME280;14717;46.924;15.474;2024-02-28T04:34:55;97773.19;;;5.89;100.00
27202;BME280;14717;46.924;15.474;2024-02-28T04:37:21;97779.19;;;5.86;100.00
27202;BME280;14717;46.924;15.474;2024-02-28T04:39:47;97781.81;;;5.71;100.00
27202;BME280;14717;46.924;15.474;2024-02-28T04:42:13;97776.22;;;5.56;100.00
27202;BME280;14717;46.924;15.474;2024-02-28T04:44:38;97778.97;;;5.56;100.00
27202;BME280;14717;46.924;15.474;2024-02-28T04:47:04;97773.59;;;5.71;100.00
27202;BME280;14717;46.924;15.474;2024-02-28T04:49:30;97787.34;;;5.76;100.00
27202;BME280;14717;46.924;15.474;2024-02-28T04:51:55;97785.31;;;5.62;100.00
27202;BME280;14717;46.924;15.474;2024-02-28T04:54:20;97781.38;;;5.48;100.00
27202;BME280;14717;46.924;15.474;2024-02-28T04:56:46;97787.53;;;5.29;100.00
27202;BME280;14717;46.924;15.474;2024-02-28T04:59:12;97781.97;;;5.19;100.00
27202;BME280;14717;46.924;15.474;2024-02-28T05:01:38;97776.69;;;5.12;100.00
27202;BME280;14717;46.924;15.474;2024-02-28T05:04:07;97778.00;;;5.05;100.00
27202;BME280;14717;46.924;15.474;2024-02-28T05:06:33;97778.00;;;5.05;100.00
27202;BME280;14717;46.924;15.474;2024-02-28T05:08:58;97775.03;;;5.07;100.00
27202;BME280;14717;46.924;15.474;2024-02-28T05:11:24;97777.47;;;5.03;100.00
27202;BME280;14717;46.924;15.474;2024-02-28T05:13:49;97767.06;;;5.05;100.00
27202;BME280;14717;46.924;15.474;2024-02-28T05:16:15;97775.50;;;4.99;100.00
27202;BME280;14717;46.924;15.474;2024-02-28T05:18:41;97778.00;;;5.05;100.00
27202;BME280;14717;46.924;15.474;2024-02-28T05:21:07;97781.63;;;5.10;100.00
27202;BME280;14717;46.924;15.474;2024-02-28T05:23:32;97779.78;;;5.16;100.00
27202;BME280;14717;46.924;15.474;2024-02-28T05:25:58;97784.75;;;5.24;100.00
27202;BME280;14717;46.924;15.474;2024-02-28T05:28:29;97785.84;;;5.23;100.00
27202;BME280;14717;46.924;15.474;2024-02-28T05:30:54;97792.34;;;5.17;100.00
27202;BME280;14717;46.924;15.474;2024-02-28T05:33:19;97796.25;;;5.21;100.00
27202;BME280;14717;46.924;15.474;2024-02-28T05:35:45;97791.88;;;5.25;100.00
27202;BME280;14717;46.924;15.474;2024-02-28T05:38:10;97795.44;;;5.25;100.00
27202;BME280;14717;46.924;15.474;2024-02-28T05:40:36;97814.75;;;5.14;100.00
27202;BME280;14717;46.924;15.474;2024-02-28T05:43:01;97821.94;;;5.20;100.00
27202;BME280;14717;46.924;15.474;2024-02-28T05:45:27;97823.72;;;5.31;100.00
27202;BME280;14717;46.924;15.474;2024-02-28T05:47:52;97816.91;;;5.38;100.00
27202;BME280;14717;46.924;15.474;2024-02-28T05:50:17;97822.91;;;5.35;100.00
27202;BME280;14717;46.924;15.474;2024-02-28T05:52:43;97838.47;;;5.30;100.00
27202;BME280;14717;46.924;15.474;2024-02-28T05:55:08;97828.53;;;5.24;100.00
27202;BME280;14717;46.924;15.474;2024-02-28T05:57:34;97832.47;;;5.33;100.00
27202;BME280;14717;46.924;15.474;2024-02-28T05:59:59;97844.22;;;5.28;100.00
27202;BME280;14717;46.924;15.474;2024-02-28T06:02:24;97833.16;;;5.18;100.00
27202;BME280;14717;46.924;15.474;2024-02-28T06:04:50;97828.94;;;5.06;100.00
27202;BME280;14717;46.924;15.474;2024-02-28T06:07:15;97838.50;;;5.04;100.00
27202;BME280;14717;46.924;15.474;2024-02-28T06:09:41;97842.69;;;5.11;100.00
27202;BME280;14717;46.924;15.474;2024-02-28T06:12:06;97851.50;;;5.18;100.00
27202;BME280;14717;46.924;15.474;2024-02-28T06:14:32;97844.63;;;5.15;100.00
27202;BME280;14717;46.924;15.474;2024-02-28T06:16:57;97844.31;;;5.12;100.00
27202;BME280;14717;46.924;15.474;2024-02-28T06:19:22;97850.91;;;5.11;100.00
27202;BME280;14717;46.924;15.474;2024-02-28T06:21:48;97856.38;;;5.11;100.00
27202;BME280;14717;46.924;15.474;2024-02-28T06:24:13;97863.06;;;5.25;100.00
27202;BME280;14717;46.924;15.474;2024-02-28T06:26:39;97871.06;;;5.31;100.00
27202;BME280;14717;46.924;15.474;2024-02-28T06:29:04;97860.63;;;5.28;100.00
27202;BME280;14717;46.924;15.474;2024-02-28T06:31:31;97864.44;;;5.27;100.00
27202;BME280;14717;46.924;15.474;2024-02-28T06:33:57;97865.44;;;5.43;100.00
27202;BME280;14717;46.924;15.474;2024-02-28T06:36:22;97855.69;;;5.56;100.00
27202;BME280;14717;46.924;15.474;2024-02-28T06:38:48;97874.50;;;5.74;100.00
27202;BME280;14717;46.924;15.474;2024-02-28T06:41:13;97881.47;;;5.87;100.00
27202;BME280;14717;46.924;15.474;2024-02-28T06:43:39;97879.03;;;5.90;100.00
27202;BME280;14717;46.924;15.474;2024-02-28T06:46:04;97882.34;;;5.97;100.00
27202;BME280;14717;46.924;15.474;2024-02-28T06:48:30;97895.03;;;6.08;100.00
27202;BME280;14717;46.924;15.474;2024-02-28T06:50:56;97891.78;;;6.16;100.00
27202;BME280;14717;46.924;15.474;2024-02-28T06:53:22;97892.09;;;6.19;100.00
27202;BME280;14717;46.924;15.474;2024-02-28T06:55:48;97897.84;;;6.23;100.00
27202;BME280;14717;46.924;15.474;2024-02-28T06:58:14;97898.78;;;6.33;100.00
27202;BME280;14717;46.924;15.474;2024-02-28T07:00:39;97903.19;;;6.39;100.00
27202;BME280;14717;46.924;15.474;2024-02-28T07:03:05;97905.81;;;6.24;100.00
27202;BME280;14717;46.924;15.474;2024-02-28T07:05:30;97913.22;;;6.19;100.00
27202;BME280;14717;46.924;15.474;2024-02-28T07:07:56;97899.47;;;6.14;100.00
27202;BME280;14717;46.924;15.474;2024-02-28T07:10:21;97898.34;;;6.10;100.00
27202;BME280;14717;46.924;15.474;2024-02-28T07:12:46;97899.47;;;6.14;100.00
27202;BME280;14717;46.924;15.474;2024-02-28T07:15:12;97905.34;;;6.32;100.00
27202;BME280;14717;46.924;15.474;2024-02-28T07:17:37;97917.28;;;6.52;100.00
27202;BME280;14717;46.924;15.474;2024-02-28T07:20:03;97913.47;;;6.63;100.00
27202;BME280;14717;46.924;15.474;2024-02-28T07:22:28;97921.78;;;6.78;100.00
27202;BME280;14717;46.924;15.474;2024-02-28T07:24:53;97910.47;;;6.65;100.00
27202;BME280;14717;46.924;15.474;2024-02-28T07:27:22;97897.50;;;6.55;100.00
27202;BME280;14717;46.924;15.474;2024-02-28T07:29:47;97915.63;;;6.51;100.00
27202;BME280;14717;46.924;15.474;2024-02-28T07:32:12;97918.19;;;6.68;100.00
27202;BME280;14717;46.924;15.474;2024-02-28T07:34:39;97916.56;;;6.77;100.00
27202;BME280;14717;46.924;15.474;2024-02-28T07:37:04;97925.03;;;6.70;100.00
27202;BME280;14717;46.924;15.474;2024-02-28T07:39:30;97931.31;;;6.61;100.00
27202;BME280;14717;46.924;15.474;2024-02-28T07:41:55;97932.22;;;6.76;100.00
27202;BME280;14717;46.924;15.474;2024-02-28T07:44:20;97930.34;;;6.91;100.00
27202;BME280;14717;46.924;15.474;2024-02-28T07:46:46;97930.63;;;6.90;100.00
27202;BME280;14717;46.924;15.474;2024-02-28T07:49:13;97927.25;;;6.73;100.00
27202;BME280;14717;46.924;15.474;2024-02-28T07:51:38;97923.94;;;6.66;100.00
27202;BME280;14717;46.924;15.474;2024-02-28T07:54:05;97920.38;;;6.66;100.00
27202;BME280;14717;46.924;15.474;2024-02-28T07:56:31;97928.91;;;6.74;100.00
27202;BME280;14717;46.924;15.474;2024-02-28T07:58:57;97925.63;;;6.72;100.00
27202;BME280;14717;46.924;15.474;2024-02-28T08:01:22;97936.63;;;6.77;100.00
27202;BME280;14717;46.924;15.474;2024-02-28T08:03:48;97932.88;;;7.03;100.00
27202;BME280;14717;46.924;15.474;2024-02-28T08:06:13;97942.13;;;6.82;100.00
27202;BME280;14717;46.924;15.474;2024-02-28T08:08:38;97931.22;;;6.97;100.00
27202;BME280;14717;46.924;15.474;2024-02-28T08:11:04;97932.38;;;7.11;100.00
27202;BME280;14717;46.924;15.474;2024-02-28T08:13:29;97935.16;;;7.25;100.00
27202;BME280;14717;46.924;15.474;2024-02-28T08:15:55;97935.47;;;7.34;100.00
27202;BME280;14717;46.924;15.474;2024-02-28T08:18:21;97933.53;;;7.44;100.00
27202;BME280;14717;46.924;15.474;2024-02-28T08:20:46;97927.19;;;7.29;100.00
27202;BME280;14717;46.924;15.474;2024-02-28T08:23:11;97934.94;;;7.42;100.00
27202;BME280;14717;46.924;15.474;2024-02-28T08:25:36;97934.16;;;7.61;100.00
27202;BME280;14717;46.924;15.474;2024-02-28T08:28:03;97939.94;;;7.64;100.00
27202;BME280;14717;46.924;15.474;2024-02-28T08:30:28;97927.00;;;7.65;100.00
27202;BME280;14717;46.924;15.474;2024-02-28T08:32:54;97935.81;;;7.82;100.00
27202;BME280;14717;46.924;15.474;2024-02-28T08:35:19;97935.81;;;7.82;100.00
27202;BME280;14717;46.924;15.474;2024-02-28T08:37:44;97952.31;;;7.92;100.00
27202;BME280;14717;46.924;15.474;2024-02-28T08:40:10;97946.28;;;8.04;100.00
27202;BME280;14717;46.924;15.474;2024-02-28T08:42:36;97941.31;;;8.06;100.00
27202;BME280;14717;46.924;15.474;2024-02-28T08:45:02;97946.28;;;7.95;100.00
27202;BME280;14717;46.924;15.474;2024-02-28T08:47:29;97951.22;;;7.73;100.00
27202;BME280;14717;46.924;15.474;2024-02-28T08:49:54;97952.88;;;7.74;100.00
27202;BME280;14717;46.924;15.474;2024-02-28T08:52:20;97958.94;;;7.86;100.00
27202;BME280;14717;46.924;15.474;2024-02-28T08:54:46;97968.00;;;7.96;100.00
27202;BME280;14717;46.924;15.474;2024-02-28T08:57:13;97963.06;;;7.93;100.00
27202;BME280;14717;46.924;15.474;2024-02-28T08:59:38;97957.56;;;8.03;100.00
27202;BME280;14717;46.924;15.474;2024-02-28T09:02:05;97958.97;;;8.25;100.00
27202;BME280;14717;46.924;15.474;2024-02-28T09:04:31;97961.72;;;8.35;100.00
27202;BME280;14717;46.924;15.474;2024-02-28T09:06:56;97966.97;;;8.42;100.00
27202;BME280;14717;46.924;15.474;2024-02-28T09:09:21;97960.91;;;8.54;100.00
27202;BME280;14717;46.924;15.474;2024-02-28T09:11:47;97947.13;;;8.59;100.00
27202;BME280;14717;46.924;15.474;2024-02-28T09:14:12;97950.38;;;8.71;100.00
27202;BME280;14717;46.924;15.474;2024-02-28T09:16:38;97947.03;;;8.89;100.00
27202;BME280;14717;46.924;15.474;2024-02-28T09:19:04;97951.44;;;8.90;100.00
27202;BME280;14717;46.924;15.474;2024-02-28T09:21:29;97951.66;;;9.03;100.00
27202;BME280;14717;46.924;15.474;2024-02-28T09:23:54;97957.50;;;8.87;100.00
27202;BME280;14717;46.924;15.474;2024-02-28T09:26:20;97952.78;;;8.97;100.00
27202;BME280;14717;46.924;15.474;2024-02-28T09:28:45;97959.31;;;9.16;100.00
27202;BME280;14717;46.924;15.474;2024-02-28T09:31:10;97959.59;;;9.20;100.00
27202;BME280;14717;46.924;15.474;2024-02-28T09:33:37;97958.16;;;9.37;100.00
27202;BME280;14717;46.924;15.474;2024-02-28T09:36:03;97955.34;;;9.47;100.00
27202;BME280;14717;46.924;15.474;2024-02-28T09:38:28;97957.00;;;9.43;100.00
27202;BME280;14717;46.924;15.474;2024-02-28T09:40:54;97958.13;;;9.42;100.00
27202;BME280;14717;46.924;15.474;2024-02-28T09:43:29;97963.19;;;9.73;100.00
27202;BME280;14717;46.924;15.474;2024-02-28T09:46:00;97966.38;;;9.90;100.00
27202;BME280;14717;46.924;15.474;2024-02-28T09:48:28;97975.44;;;10.00;100.00
27202;BME280;14717;46.924;15.474;2024-02-28T09:50:55;97966.63;;;9.98;100.00
27202;BME280;14717;46.924;15.474;2024-02-28T09:53:20;97973.66;;;10.19;100.00
27202;BME280;14717;46.924;15.474;2024-02-28T09:55:47;97966.31;;;10.38;100.00
27202;BME280;14717;46.924;15.474;2024-02-28T09:58:14;97973.75;;;10.42;100.00
27202;BME280;14717;46.924;15.474;2024-02-28T10:00:40;97972.03;;;10.46;100.00
27202;BME280;14717;46.924;15.474;2024-02-28T10:03:11;97973.94;;;10.51;100.00
27202;BME280;14717;46.924;15.474;2024-02-28T10:05:38;97975.84;;;10.55;100.00
27202;BME280;14717;46.924;15.474;2024-02-28T10:08:05;97975.53;;;10.62;100.00
27202;BME280;14717;46.924;15.474;2024-02-28T10:10:30;97982.09;;;10.65;100.00
27202;BME280;14717;46.924;15.474;2024-02-28T10:12:56;97980.94;;;10.71;100.00
27202;BME280;14717;46.924;15.474;2024-02-28T10:15:22;97986.66;;;10.80;100.00
27202;BME280;14717;46.924;15.474;2024-02-28T10:17:47;97984.66;;;10.85;100.00
27202;BME280;14717;46.924;15.474;2024-02-28T10:20:13;97984.50;;;11.00;100.00
27202;BME280;14717;46.924;15.474;2024-02-28T10:22:39;97982.84;;;10.99;100.00
27202;BME280;14717;46.924;15.474;2024-02-28T10:25:05;97984.16;;;11.06;100.00
27202;BME280;14717;46.924;15.474;2024-02-28T10:27:34;97978.75;;;11.20;100.00
27202;BME280;14717;46.924;15.474;2024-02-28T10:30:01;97985.84;;;11.31;100.00
27202;BME280;14717;46.924;15.474;2024-02-28T10:32:32;97989.00;;;11.43;100.00
27202;BME280;14717;46.924;15.474;2024-02-28T10:35:00;97986.28;;;11.38;100.00
27202;BME280;14717;46.924;15.474;2024-02-28T10:37:28;97982.41;;;11.39;100.00
27202;BME280;14717;46.924;15.474;2024-02-28T10:39:56;97990.63;;;11.48;100.00
27202;BME280;14717;46.924;15.474;2024-02-28T10:42:23;97987.75;;;11.58;100.00
27202;BME280;14717;46.924;15.474;2024-02-28T10:44:52;97983.84;;;11.59;100.00
27202;BME280;14717;46.924;15.474;2024-02-28T10:47:19;97976.72;;;11.53;100.00
27202;BME280;14717;46.924;15.474;2024-02-28T10:49:44;97984.50;;;11.70;100.00
27202;BME280;14717;46.924;15.474;2024-02-28T10:52:11;97977.44;;;11.82;100.00
27202;BME280;14717;46.924;15.474;2024-02-28T10:54:39;97978.34;;;11.96;100.00
27202;BME280;14717;46.924;15.474;2024-02-28T10:57:07;97977.28;;;11.92;100.00
27202;BME280;14717;46.924;15.474;2024-02-28T10:59:35;97979.63;;;12.03;100.00
27202;BME280;14717;46.924;15.474;2024-02-28T11:02:02;97983.56;;;12.16;100.00
27202;BME280;14717;46.924;15.474;2024-02-28T11:04:29;97982.75;;;12.15;100.00
27202;BME280;14717;46.924;15.474;2024-02-28T11:06:55;97981.78;;;12.25;100.00
27202;BME280;14717;46.924;15.474;2024-02-28T11:09:22;97971.50;;;12.43;100.00
27202;BME280;14717;46.924;15.474;2024-02-28T11:11:50;97977.16;;;12.52;100.00
27202;BME280;14717;46.924;15.474;2024-02-28T11:14:16;97996.00;;;12.36;100.00
27202;BME280;14717;46.924;15.474;2024-02-28T11:16:42;97984.91;;;12.36;100.00
27202;BME280;14717;46.924;15.474;2024-02-28T11:19:22;97974.53;;;12.60;100.00
27202;BME280;14717;46.924;15.474;2024-02-28T11:21:57;97974.53;;;12.60;100.00
27202;BME280;14717;46.924;15.474;2024-02-28T11:24:25;97970.78;;;12.70;100.00
27202;BME280;14717;46.924;15.474;2024-02-28T11:26:53;97974.22;;;12.80;100.00
27202;BME280;14717;46.924;15.474;2024-02-28T11:29:24;97980.13;;;12.92;100.00
27202;BME280;14717;46.924;15.474;2024-02-28T11:31:49;97976.09;;;12.98;100.00
27202;BME280;14717;46.924;15.474;2024-02-28T11:34:15;97979.28;;;12.91;100.00
27202;BME280;14717;46.924;15.474;2024-02-28T11:36:40;97978.88;;;12.98;100.00
27202;BME280;14717;46.924;15.474;2024-02-28T11:39:06;97972.94;;;13.04;100.00
27202;BME280;14717;46.924;15.474;2024-02-28T11:41:31;97966.88;;;13.02;100.00
27202;BME280;14717;46.924;15.474;2024-02-28T11:43:57;97970.25;;;12.99;100.00
27202;BME280;14717;46.924;15.474;2024-02-28T11:46:23;97970.38;;;13.08;100.00
27202;BME280;14717;46.924;15.474;2024-02-28T11:48:49;97976.75;;;13.08;100.00
27202;BME280;14717;46.924;15.474;2024-02-28T11:51:14;97964.75;;;13.26;100.00
27202;BME280;14717;46.924;15.474;2024-02-28T11:53:40;97967.09;;;13.32;100.00
27202;BME280;14717;46.924;15.474;2024-02-28T11:56:06;97964.22;;;13.37;100.00
27202;BME280;14717;46.924;15.474;2024-02-28T11:58:33;97966.50;;;13.49;100.00
27202;BME280;14717;46.924;15.474;2024-02-28T12:00:58;97969.47;;;13.52;100.00
27202;BME280;14717;46.924;15.474;2024-02-28T12:03:24;97956.44;;;13.66;100.00
27202;BME280;14717;46.924;15.474;2024-02-28T12:05:51;97950.47;;;13.72;100.00
27202;BME280;14717;46.924;15.474;2024-02-28T12:08:17;97954.13;;;13.81;99.08
27202;BME280;14717;46.924;15.474;2024-02-28T12:10:44;97953.59;;;13.93;98.91
27202;BME280;14717;46.924;15.474;2024-02-28T12:13:10;97957.00;;;13.90;97.34
27202;BME280;14717;46.924;15.474;2024-02-28T12:15:36;97948.16;;;13.88;100.00
27202;BME280;14717;46.924;15.474;2024-02-28T12:18:08;97945.66;;;14.00;99.07
27202;BME280;14717;46.924;15.474;2024-02-28T12:20:34;97953.00;;;14.31;97.47
27202;BME280;14717;46.924;15.474;2024-02-28T12:23:00;97949.53;;;14.25;94.59
27202;BME280;14717;46.924;15.474;2024-02-28T12:25:25;97945.50;;;14.53;95.36
27202;BME280;14717;46.924;15.474;2024-02-28T12:27:50;97934.88;;;14.77;92.38
27202;BME280;14717;46.924;15.474;2024-02-28T12:30:16;97936.00;;;14.97;91.51
27202;BME280;14717;46.924;15.474;2024-02-28T12:32:41;97926.81;;;15.19;93.06
27202;BME280;14717;46.924;15.474;2024-02-28T12:35:06;97923.94;;;15.40;89.23
27202;BME280;14717;46.924;15.474;2024-02-28T12:37:32;97923.22;;;15.18;88.24
27202;BME280;14717;46.924;15.474;2024-02-28T12:39:57;97929.69;;;15.44;85.69